createdAt,value
2018-06-25T00:03:44.391Z,90.42
2018-06-25T00:08:49.601Z,91.00
2018-06-25T00:13:52.986Z,91.39
2018-06-25T00:18:57.094Z,91.49
2018-06-25T00:24:00.307Z,91.56
2018-06-25T00:29:03.457Z,92.40
2018-06-25T00:34:06.558Z,92.74
2018-06-25T00:39:09.742Z,93.94
2018-06-25T00:44:14.904Z,94.37
2018-06-25T00:49:18.032Z,94.47
2018-06-25T00:54:21.342Z,93.61
2018-06-25T00:59:35.882Z,94.01
2018-06-25T01:04:39.307Z,94.21
2018-06-25T01:09:43.479Z,94.15
2018-06-25T01:14:46.567Z,94.35
2018-06-25T01:19:49.692Z,94.24
2018-06-25T01:24:52.911Z,93.97
2018-06-25T01:29:56.392Z,93.64
2018-06-25T01:34:59.631Z,92.92
2018-06-25T01:40:02.862Z,92.78
2018-06-25T01:45:06.102Z,92.76
2018-06-25T01:50:09.246Z,92.76
2018-06-25T01:55:12.395Z,93.07
2018-06-25T02:00:16.471Z,91.82
2018-06-25T02:05:19.702Z,91.25
2018-06-25T02:10:22.883Z,90.44
2018-06-25T02:15:26.125Z,89.67
2018-06-25T02:20:29.247Z,89.15
2018-06-25T02:25:32.382Z,89.37
2018-06-25T02:30:35.479Z,89.38
2018-06-25T02:35:38.953Z,88.90
2018-06-25T02:40:42.252Z,88.90
2018-06-25T02:45:45.696Z,88.81
2018-06-25T02:50:48.888Z,88.59
2018-06-25T02:55:52.202Z,89.05
2018-06-25T03:00:55.379Z,89.36
2018-06-25T03:05:58.463Z,89.84
2018-06-25T03:11:01.572Z,89.18
2018-06-25T03:16:04.672Z,88.98
2018-06-25T03:21:07.959Z,88.92
2018-06-25T03:26:11.122Z,88.65
2018-06-25T03:31:14.498Z,89.01
2018-06-25T03:36:17.716Z,89.05
2018-06-25T03:41:20.927Z,88.55
2018-06-25T03:46:24.115Z,87.99
2018-06-25T03:51:27.263Z,87.98
2018-06-25T03:56:30.564Z,88.38
2018-06-25T04:01:33.690Z,87.75
2018-06-25T04:06:36.815Z,87.59
2018-06-25T04:11:39.923Z,86.78
2018-06-25T04:16:43.110Z,86.57
2018-06-25T04:21:46.978Z,86.27
2018-06-25T04:26:50.105Z,86.79
2018-06-25T04:31:53.263Z,86.08
2018-06-25T04:36:56.862Z,85.02
2018-06-25T04:42:00.114Z,85.14
2018-06-25T04:47:03.244Z,85.25
2018-06-25T04:52:06.360Z,84.46
2018-06-25T04:57:09.526Z,84.24
2018-06-25T05:02:19.225Z,82.84
2018-06-25T05:07:22.376Z,80.80
2018-06-25T05:12:42.677Z,80.94
2018-06-25T05:17:46.868Z,80.21
2018-06-25T05:22:50.063Z,79.08
2018-06-25T05:33:14.647Z,78.07
2018-06-25T05:38:17.807Z,78.20
2018-06-25T05:43:20.997Z,77.96
2018-06-25T05:48:24.154Z,77.50
2018-06-25T05:53:27.876Z,77.06
2018-06-25T05:58:31.076Z,77.35
2018-06-25T06:03:34.591Z,78.13
2018-06-25T06:08:37.822Z,79.03
2018-06-25T06:13:41.243Z,78.58
2018-06-25T06:18:44.479Z,76.33
2018-06-25T06:23:47.744Z,76.56
2018-06-25T06:28:50.891Z,75.97
2018-06-25T06:33:54.066Z,75.37
2018-06-25T06:38:57.278Z,74.77
2018-06-25T06:44:00.446Z,74.38
2018-06-25T06:49:03.706Z,77.53
2018-06-25T06:54:07.102Z,77.84
2018-06-25T06:59:10.389Z,76.45
2018-06-25T07:04:13.579Z,75.04
2018-06-25T07:09:16.729Z,73.04
2018-06-25T07:14:19.975Z,73.17
2018-06-25T07:19:25.217Z,73.43
2018-06-25T07:24:28.553Z,74.19
2018-06-25T07:29:31.799Z,74.74
2018-06-25T07:34:34.995Z,75.45
2018-06-25T07:39:38.110Z,74.00
2018-06-25T07:44:41.235Z,73.92
2018-06-25T07:49:44.415Z,73.32
2018-06-25T07:54:48.549Z,71.91
2018-06-25T07:59:51.841Z,71.66
2018-06-25T08:04:55.165Z,72.11
2018-06-25T08:09:58.389Z,70.94
2018-06-25T08:15:01.525Z,70.95
2018-06-25T08:20:04.956Z,68.05
2018-06-25T08:25:08.141Z,65.96
2018-06-25T08:30:11.506Z,65.75
2018-06-25T08:35:14.709Z,68.02
2018-06-25T08:40:18.543Z,68.37
2018-06-25T08:45:21.781Z,66.72
2018-06-25T08:50:25.043Z,63.11
2018-06-25T08:55:28.327Z,57.25
2018-06-25T09:00:31.456Z,53.78
2018-06-25T09:05:34.684Z,53.41
2018-06-25T09:10:37.886Z,54.97
2018-06-25T09:15:41.051Z,55.28
2018-06-25T09:20:44.230Z,56.40
2018-06-25T09:25:47.307Z,55.32
2018-06-25T09:30:50.435Z,51.51
2018-06-25T09:35:53.587Z,51.04
2018-06-25T09:40:56.854Z,47.64
2018-06-25T09:46:00.101Z,41.56
2018-06-25T09:51:03.893Z,41.01
2018-06-25T09:56:07.105Z,42.94
2018-06-25T10:01:10.381Z,44.75
2018-06-25T10:06:13.671Z,46.23
2018-06-25T10:11:16.796Z,47.23
2018-06-25T10:16:19.940Z,45.48
2018-06-25T10:21:23.068Z,48.38
2018-06-25T10:26:26.330Z,40.54
2018-06-25T10:31:29.491Z,40.99
2018-06-25T10:36:32.676Z,41.17
2018-06-25T10:41:36.057Z,40.45
2018-06-25T10:46:39.421Z,40.96
2018-06-25T10:51:42.627Z,39.51
2018-06-25T10:56:45.760Z,37.70
2018-06-25T11:01:48.982Z,37.50
2018-06-25T11:06:52.106Z,39.50
2018-06-25T11:11:55.380Z,41.19
2018-06-25T11:16:58.526Z,36.54
2018-06-25T11:22:01.651Z,38.78
2018-06-25T11:27:05.200Z,39.55
2018-06-25T11:32:08.242Z,39.91
2018-06-25T11:37:11.461Z,39.05
2018-06-25T11:42:14.632Z,39.83
2018-06-25T11:47:17.782Z,39.03
2018-06-25T11:52:21.419Z,40.52
2018-06-25T11:57:24.595Z,39.25
2018-06-25T12:02:27.873Z,38.24
2018-06-25T12:07:30.998Z,40.73
2018-06-25T12:12:34.148Z,36.57
2018-06-25T12:17:37.365Z,38.44
2018-06-25T12:22:40.415Z,38.36
2018-06-25T12:27:43.762Z,40.94
2018-06-25T12:32:47.045Z,40.32
2018-06-25T12:37:51.455Z,39.62
2018-06-25T12:42:57.049Z,38.48
2018-06-25T12:48:02.468Z,35.44
2018-06-25T12:53:06.771Z,34.99
2018-06-25T12:58:10.631Z,37.15
2018-06-25T13:03:14.762Z,36.60
2018-06-25T13:08:18.231Z,37.59
2018-06-25T13:13:21.416Z,37.56
2018-06-25T13:18:25.419Z,37.50
2018-06-25T13:23:30.878Z,36.61
2018-06-25T13:28:35.953Z,37.18
2018-06-25T13:33:39.251Z,39.85
2018-06-25T13:38:44.022Z,37.73
2018-06-25T13:43:54.216Z,35.75
2018-06-25T13:48:59.024Z,36.71
2018-06-25T13:54:02.634Z,36.52
2018-06-25T14:04:28.328Z,37.06
2018-06-25T14:09:33.009Z,36.85
2018-06-25T14:14:36.835Z,35.92
2018-06-25T14:19:40.682Z,34.08
2018-06-25T14:24:44.282Z,33.31
2018-06-25T14:29:47.695Z,35.95
2018-06-25T14:34:50.946Z,35.87
2018-06-25T14:39:58.477Z,37.53
2018-06-25T14:45:02.460Z,40.01
2018-06-25T14:50:05.705Z,41.13
2018-06-25T14:55:08.866Z,43.30
2018-06-25T15:00:11.974Z,42.01
2018-06-25T15:05:15.152Z,42.16
2018-06-25T15:10:18.296Z,38.64
2018-06-25T15:15:21.572Z,40.25
2018-06-25T15:20:25.668Z,38.36
2018-06-25T15:25:29.150Z,40.57
2018-06-25T15:30:32.348Z,42.68
2018-06-25T15:35:35.637Z,43.07
2018-06-25T15:40:38.851Z,44.11
2018-06-25T15:45:42.032Z,44.31
2018-06-25T15:50:45.313Z,45.21
2018-06-25T15:55:48.530Z,45.29
2018-06-25T16:00:51.780Z,44.80
2018-06-25T16:05:55.091Z,46.46
2018-06-25T16:10:58.463Z,48.03
2018-06-25T16:16:01.861Z,47.35
2018-06-25T16:21:05.705Z,46.66
2018-06-25T16:26:09.170Z,47.62
2018-06-25T16:31:12.496Z,46.99
2018-06-25T16:36:16.071Z,46.61
2018-06-25T16:41:19.268Z,47.91
2018-06-25T16:46:23.138Z,47.12
2018-06-25T16:51:26.284Z,46.95
2018-06-25T16:56:29.521Z,47.17
2018-06-25T17:01:32.842Z,46.19
2018-06-25T17:06:36.485Z,44.70
2018-06-25T17:11:39.895Z,45.90
2018-06-25T17:16:43.104Z,46.35
2018-06-25T17:21:46.560Z,46.60
2018-06-25T17:26:49.943Z,48.69
2018-06-25T17:31:53.145Z,48.30
2018-06-25T17:36:56.371Z,48.80
2018-06-25T17:41:59.535Z,49.95
2018-06-25T17:47:02.663Z,49.92
2018-06-25T17:52:05.872Z,51.11
2018-06-25T17:57:09.078Z,52.46
2018-06-25T18:02:12.300Z,53.58
2018-06-25T18:07:15.721Z,56.07
2018-06-25T18:12:19.055Z,57.09
2018-06-25T18:17:22.239Z,56.55
2018-06-25T18:22:25.370Z,57.74
2018-06-25T18:27:28.518Z,58.53
2018-06-25T18:32:31.649Z,59.82
2018-06-25T18:37:34.854Z,59.54
2018-06-25T18:42:38.099Z,59.73
2018-06-25T18:47:41.472Z,59.99
2018-06-25T18:52:44.704Z,60.74
2018-06-25T18:57:47.989Z,60.87
2018-06-25T19:02:51.766Z,61.34
2018-06-25T19:07:55.055Z,62.26
2018-06-25T19:12:58.451Z,62.60
2018-06-25T19:18:01.735Z,64.10
2018-06-25T19:23:05.015Z,64.13
2018-06-25T19:28:08.154Z,63.15
2018-06-25T19:33:11.488Z,63.12
2018-06-25T19:38:16.892Z,63.74
2018-06-25T19:43:20.144Z,63.73
2018-06-25T19:48:23.379Z,64.44
2018-06-25T19:53:26.603Z,66.17
2018-06-25T19:58:30.472Z,65.78
2018-06-25T20:03:35.790Z,66.91
2018-06-25T20:08:40.488Z,67.35
2018-06-25T20:13:43.704Z,68.15
2018-06-25T20:18:51.897Z,68.52
2018-06-25T20:23:57.437Z,69.05
2018-06-25T20:29:00.559Z,69.37
2018-06-25T20:34:04.760Z,68.74
2018-06-25T20:39:11.650Z,70.17
2018-06-25T20:44:16.465Z,71.00
2018-06-25T20:49:19.768Z,71.77
2018-06-25T20:54:22.957Z,72.75
2018-06-25T20:59:26.230Z,72.52
2018-06-25T21:04:29.348Z,72.38
2018-06-25T21:09:32.475Z,73.10
2018-06-25T21:14:35.614Z,73.99
2018-06-25T21:19:38.691Z,74.46
2018-06-25T21:24:41.847Z,75.95
2018-06-25T21:29:44.986Z,76.44
2018-06-25T21:34:49.242Z,77.36
2018-06-25T21:39:52.580Z,76.88
2018-06-25T21:44:55.802Z,77.84
2018-06-25T21:49:58.970Z,77.78
2018-06-25T21:55:02.077Z,77.64
2018-06-25T22:00:08.509Z,77.72
2018-06-25T22:05:11.822Z,78.70
2018-06-25T22:10:14.899Z,78.25
2018-06-25T22:15:18.097Z,79.40
2018-06-25T22:20:21.367Z,79.75
2018-06-25T22:25:24.698Z,77.73
2018-06-25T22:30:27.933Z,77.18
2018-06-25T22:35:31.100Z,76.01
2018-06-25T22:40:34.881Z,74.65
2018-06-25T22:45:38.784Z,72.15
2018-06-25T22:50:41.890Z,71.05
2018-06-25T22:55:45.039Z,70.74
2018-06-25T23:00:48.167Z,69.97
2018-06-25T23:05:51.368Z,70.88
2018-06-25T23:10:54.633Z,71.64
2018-06-25T23:15:57.745Z,73.04
2018-06-25T23:21:00.908Z,73.34
2018-06-25T23:26:04.249Z,74.03
2018-06-25T23:31:07.428Z,74.16
2018-06-25T23:36:10.526Z,73.44
2018-06-25T23:41:13.687Z,75.04
2018-06-25T23:46:17.355Z,75.39
2018-06-25T23:51:20.583Z,76.00
2018-06-25T23:56:23.909Z,76.35
